N5693P KSGR-KF44
Flight info
| Callsign | N5693P |
|---|---|
| Flight time | N/A |
| Altitude | 10000 |
| Route | LOA4 LOA |
| Aircraft | PA24/L-SDGRY/S |
Departure
| Time | 2026-05-04 03:11 |
|---|---|
| Airport | Sugar Land Regional Airport (KSGR) |
Arrival
| Time | N/A |
|---|---|
| Airport | KF44 |
| Time | Latitude | Longitude | Altitude | Speed | Heading |
|---|---|---|---|---|---|
| 2026-05-04 02:53 | 29.62704 | -95.65365 | 88 ft | 0 kts | 354° |
| 2026-05-04 02:56 | 29.62705 | -95.65365 | 88 ft | 0 kts | 354° |
| 2026-05-04 02:59 | 29.62707 | -95.65366 | 69 ft | 3 kts | 354° |
| 2026-05-04 03:00 | 29.62702 | -95.65418 | 89 ft | 10 kts | 244° |
| 2026-05-04 03:00 | 29.62678 | -95.65474 | 88 ft | 8 kts | 243° |
| 2026-05-04 03:00 | 29.62670 | -95.65510 | 88 ft | 2 kts | 264° |
| 2026-05-04 03:00 | 29.62670 | -95.65511 | 88 ft | 0 kts | 264° |
| 2026-05-04 03:01 | 29.62670 | -95.65512 | 88 ft | 0 kts | 264° |
| 2026-05-04 03:04 | 29.62669 | -95.65524 | 88 ft | 5 kts | 264° |
| 2026-05-04 03:05 | 29.62668 | -95.65557 | 88 ft | 5 kts | 287° |
| 2026-05-04 03:05 | 29.62731 | -95.65576 | 87 ft | 16 kts | 355° |
| 2026-05-04 03:05 | 29.62852 | -95.65587 | 89 ft | 17 kts | 355° |
| 2026-05-04 03:05 | 29.62946 | -95.65596 | 88 ft | 11 kts | 356° |
| 2026-05-04 03:06 | 29.63019 | -95.65602 | 88 ft | 11 kts | 356° |
| 2026-05-04 03:06 | 29.63092 | -95.65610 | 88 ft | 12 kts | 355° |
| 2026-05-04 03:06 | 29.63168 | -95.65616 | 88 ft | 10 kts | 356° |
| 2026-05-04 03:06 | 29.63229 | -95.65622 | 88 ft | 8 kts | 355° |
| 2026-05-04 03:07 | 29.63286 | -95.65627 | 88 ft | 9 kts | 354° |
| 2026-05-04 03:07 | 29.63319 | -95.65645 | 90 ft | 3 kts | 281° |
| 2026-05-04 03:07 | 29.63319 | -95.65663 | 89 ft | 0 kts | 265° |
| 2026-05-04 03:07 | 29.63319 | -95.65664 | 89 ft | 0 kts | 265° |
| 2026-05-04 03:09 | 29.63318 | -95.65675 | 90 ft | 6 kts | 265° |
| 2026-05-04 03:09 | 29.63315 | -95.65721 | 90 ft | 6 kts | 264° |
| 2026-05-04 03:10 | 29.63294 | -95.65756 | 93 ft | 7 kts | 176° |
| 2026-05-04 03:10 | 29.63230 | -95.65749 | 90 ft | 23 kts | 174° |
| 2026-05-04 03:10 | 29.62829 | -95.65711 | 124 ft | 77 kts | 171° |
| 2026-05-04 03:10 | 29.62230 | -95.65654 | 282 ft | 95 kts | 175° |
| 2026-05-04 03:11 | 29.61553 | -95.65603 | 554 ft | 99 kts | 175° |
| 2026-05-04 03:11 | 29.60837 | -95.65532 | 826 ft | 104 kts | 174° |
| 2026-05-04 03:11 | 29.60144 | -95.65489 | 1162 ft | 96 kts | 176° |
| 2026-05-04 03:11 | 29.59469 | -95.65458 | 1445 ft | 98 kts | 176° |
| 2026-05-04 03:12 | 29.58787 | -95.65415 | 1699 ft | 101 kts | 175° |
| 2026-05-04 03:12 | 29.58083 | -95.65381 | 1976 ft | 100 kts | 175° |
| 2026-05-04 03:12 | 29.57389 | -95.65352 | 2265 ft | 100 kts | 175° |
| 2026-05-04 03:12 | 29.56687 | -95.65232 | 2523 ft | 104 kts | 157° |
| 2026-05-04 03:13 | 29.56141 | -95.64712 | 2794 ft | 104 kts | 123° |
| 2026-05-04 03:13 | 29.55944 | -95.63904 | 3001 ft | 109 kts | 93° |
| 2026-05-04 03:13 | 29.56129 | -95.63049 | 3223 ft | 112 kts | 65° |
| 2026-05-04 03:13 | 29.56613 | -95.62358 | 3478 ft | 112 kts | 41° |
| 2026-05-04 03:14 | 29.57321 | -95.61976 | 3697 ft | 115 kts | 13° |
| 2026-05-04 03:14 | 29.58121 | -95.61976 | 3932 ft | 117 kts | 353° |
| 2026-05-04 03:14 | 29.58922 | -95.62152 | 4170 ft | 117 kts | 349° |
| 2026-05-04 03:14 | 29.59733 | -95.62328 | 4404 ft | 118 kts | 350° |
| 2026-05-04 03:15 | 29.60538 | -95.62487 | 4672 ft | 116 kts | 351° |
| 2026-05-04 03:15 | 29.61336 | -95.62610 | 4920 ft | 117 kts | 355° |
| 2026-05-04 03:15 | 29.62157 | -95.62652 | 5122 ft | 119 kts | 359° |
| 2026-05-04 03:15 | 29.62984 | -95.62635 | 5361 ft | 118 kts | 1° |
| 2026-05-04 03:16 | 29.63798 | -95.62625 | 5613 ft | 116 kts | 356° |
| 2026-05-04 03:16 | 29.64584 | -95.62665 | 5886 ft | 112 kts | 355° |
| 2026-05-04 03:16 | 29.65119 | -95.62675 | 5988 ft | 118 kts | 358° |
| 2026-05-04 03:16 | 29.66205 | -95.62659 | 6266 ft | 119 kts | 358° |
| 2026-05-04 03:17 | 29.67046 | -95.62659 | 6441 ft | 122 kts | 354° |
| 2026-05-04 03:17 | 29.67606 | -95.62674 | 6577 ft | 121 kts | 358° |
| 2026-05-04 03:17 | 29.68459 | -95.62597 | 6761 ft | 123 kts | 357° |
| 2026-05-04 03:17 | 29.69307 | -95.62654 | 6947 ft | 122 kts | 353° |
| 2026-05-04 03:18 | 29.70162 | -95.62685 | 7133 ft | 123 kts | 356° |
| 2026-05-04 03:18 | 29.71046 | -95.62725 | 7233 ft | 129 kts | 354° |
| 2026-05-04 03:18 | 29.71934 | -95.62730 | 7434 ft | 127 kts | 356° |
| 2026-05-04 03:18 | 29.72808 | -95.62758 | 7649 ft | 123 kts | 354° |
| 2026-05-04 03:19 | 29.73661 | -95.62810 | 7856 ft | 122 kts | 352° |
| 2026-05-04 03:19 | 29.74477 | -95.62864 | 8088 ft | 118 kts | 353° |
| 2026-05-04 03:19 | 29.75295 | -95.62884 | 8281 ft | 118 kts | 354° |
| 2026-05-04 03:19 | 29.76119 | -95.62887 | 8479 ft | 118 kts | 355° |
| 2026-05-04 03:20 | 29.76930 | -95.62934 | 8708 ft | 115 kts | 353° |
| 2026-05-04 03:20 | 29.77707 | -95.62923 | 8975 ft | 108 kts | 356° |
| 2026-05-04 03:20 | 29.78452 | -95.62949 | 9210 ft | 105 kts | 351° |
| 2026-05-04 03:20 | 29.79184 | -95.62985 | 9417 ft | 105 kts | 352° |
| 2026-05-04 03:21 | 29.79908 | -95.63030 | 9628 ft | 104 kts | 351° |
| 2026-05-04 03:21 | 29.80641 | -95.63067 | 9799 ft | 108 kts | 353° |
| 2026-05-04 03:21 | 29.81397 | -95.63064 | 9984 ft | 109 kts | 356° |
| 2026-05-04 03:21 | 29.82215 | -95.63069 | 9980 ft | 127 kts | 352° |
| 2026-05-04 03:22 | 29.83132 | -95.63132 | 10017 ft | 136 kts | 353° |
| 2026-05-04 03:22 | 29.84112 | -95.63178 | 10011 ft | 145 kts | 354° |
| 2026-05-04 03:22 | 29.85146 | -95.63204 | 10004 ft | 151 kts | 355° |
| 2026-05-04 03:22 | 29.86208 | -95.63234 | 9998 ft | 154 kts | 354° |
| 2026-05-04 03:23 | 29.87266 | -95.63266 | 9989 ft | 153 kts | 355° |
| 2026-05-04 03:23 | 29.88330 | -95.63294 | 9987 ft | 152 kts | 355° |
| 2026-05-04 03:23 | 29.89383 | -95.63324 | 9989 ft | 151 kts | 354° |
| 2026-05-04 03:23 | 29.90432 | -95.63356 | 9991 ft | 150 kts | 355° |
| 2026-05-04 03:24 | 29.91476 | -95.63383 | 9993 ft | 150 kts | 355° |
| 2026-05-04 03:24 | 29.92519 | -95.63413 | 9994 ft | 149 kts | 354° |
| 2026-05-04 03:24 | 29.93554 | -95.63449 | 9993 ft | 149 kts | 353° |
| 2026-05-04 03:24 | 29.94594 | -95.63484 | 9994 ft | 149 kts | 355° |
| 2026-05-04 03:25 | 29.95630 | -95.63511 | 9995 ft | 149 kts | 355° |
| 2026-05-04 03:25 | 29.96667 | -95.63534 | 9996 ft | 149 kts | 355° |
| 2026-05-04 03:25 | 29.97705 | -95.63559 | 9997 ft | 149 kts | 355° |
| 2026-05-04 03:25 | 29.98739 | -95.63591 | 10001 ft | 149 kts | 354° |
| 2026-05-04 03:26 | 29.99763 | -95.63619 | 10008 ft | 149 kts | 355° |
| 2026-05-04 03:26 | 30.00800 | -95.63651 | 10003 ft | 149 kts | 354° |
| 2026-05-04 03:26 | 30.01834 | -95.63682 | 10000 ft | 149 kts | 355° |
| 2026-05-04 03:26 | 30.02867 | -95.63706 | 10000 ft | 149 kts | 355° |
| 2026-05-04 03:27 | 30.03902 | -95.63737 | 10002 ft | 149 kts | 355° |
| 2026-05-04 03:27 | 30.04937 | -95.63769 | 10002 ft | 149 kts | 355° |
| 2026-05-04 03:27 | 30.05973 | -95.63800 | 10003 ft | 149 kts | 355° |
| 2026-05-04 03:27 | 30.07011 | -95.63824 | 10005 ft | 149 kts | 355° |
| 2026-05-04 03:28 | 30.08048 | -95.63858 | 9999 ft | 149 kts | 355° |
| 2026-05-04 03:28 | 30.09086 | -95.63891 | 10001 ft | 149 kts | 355° |
| 2026-05-04 03:28 | 30.10125 | -95.63916 | 10003 ft | 149 kts | 355° |
| 2026-05-04 03:28 | 30.11167 | -95.63946 | 10004 ft | 149 kts | 355° |
| 2026-05-04 03:29 | 30.12203 | -95.63975 | 10013 ft | 148 kts | 355° |
| 2026-05-04 03:29 | 30.13232 | -95.64008 | 10025 ft | 148 kts | 355° |
| 2026-05-04 03:29 | 30.14265 | -95.64037 | 10017 ft | 149 kts | 355° |
| 2026-05-04 03:29 | 30.15302 | -95.64067 | 10008 ft | 149 kts | 355° |
| 2026-05-04 03:30 | 30.16344 | -95.64095 | 9996 ft | 150 kts | 355° |
| 2026-05-04 03:30 | 30.17389 | -95.64124 | 10010 ft | 150 kts | 355° |
| 2026-05-04 03:30 | 30.18420 | -95.64158 | 9995 ft | 150 kts | 355° |
| 2026-05-04 03:30 | 30.19464 | -95.64186 | 9995 ft | 150 kts | 355° |
| 2026-05-04 03:31 | 30.20509 | -95.64213 | 9992 ft | 150 kts | 355° |
| 2026-05-04 03:31 | 30.21555 | -95.64243 | 9989 ft | 150 kts | 355° |
| 2026-05-04 03:31 | 30.22599 | -95.64274 | 9992 ft | 150 kts | 355° |
| 2026-05-04 03:31 | 30.23642 | -95.64306 | 9984 ft | 150 kts | 355° |
| 2026-05-04 03:32 | 30.24687 | -95.64335 | 9979 ft | 150 kts | 355° |
| 2026-05-04 03:32 | 30.25729 | -95.64364 | 9978 ft | 150 kts | 355° |
| 2026-05-04 03:32 | 30.26769 | -95.64393 | 9977 ft | 149 kts | 355° |
| 2026-05-04 03:32 | 30.27809 | -95.64425 | 9973 ft | 150 kts | 355° |
| 2026-05-04 03:33 | 30.28851 | -95.64455 | 9977 ft | 150 kts | 355° |
| 2026-05-04 03:33 | 30.29894 | -95.64483 | 9976 ft | 150 kts | 355° |
| 2026-05-04 03:33 | 30.30936 | -95.64513 | 9979 ft | 150 kts | 355° |
| 2026-05-04 03:33 | 30.31967 | -95.64543 | 9977 ft | 150 kts | 355° |
| 2026-05-04 03:34 | 30.33011 | -95.64574 | 9988 ft | 150 kts | 355° |
| 2026-05-04 03:34 | 30.34057 | -95.64603 | 9976 ft | 150 kts | 355° |
| 2026-05-04 03:34 | 30.35117 | -95.64633 | 9975 ft | 150 kts | 355° |
| 2026-05-04 03:34 | 30.36163 | -95.64664 | 9973 ft | 150 kts | 355° |
| 2026-05-04 03:35 | 30.37193 | -95.64695 | 9972 ft | 150 kts | 355° |
| 2026-05-04 03:35 | 30.38239 | -95.64723 | 9973 ft | 150 kts | 355° |
| 2026-05-04 03:35 | 30.39282 | -95.64752 | 9973 ft | 150 kts | 355° |
| 2026-05-04 03:35 | 30.40329 | -95.64783 | 9973 ft | 150 kts | 355° |
| 2026-05-04 03:36 | 30.41373 | -95.64815 | 9974 ft | 150 kts | 355° |
| 2026-05-04 03:36 | 30.42416 | -95.64846 | 9976 ft | 151 kts | 355° |
| 2026-05-04 03:36 | 30.43466 | -95.64876 | 9973 ft | 150 kts | 355° |
| 2026-05-04 03:36 | 30.44513 | -95.64904 | 9983 ft | 150 kts | 355° |
| 2026-05-04 03:37 | 30.45558 | -95.64935 | 9972 ft | 150 kts | 355° |
| 2026-05-04 03:37 | 30.46602 | -95.64964 | 9964 ft | 150 kts | 355° |
| 2026-05-04 03:37 | 30.47645 | -95.64994 | 9969 ft | 150 kts | 355° |
| 2026-05-04 03:37 | 30.48688 | -95.65025 | 9974 ft | 150 kts | 355° |
| 2026-05-04 03:38 | 30.49718 | -95.65054 | 9963 ft | 150 kts | 355° |
| 2026-05-04 03:38 | 30.50765 | -95.65084 | 9968 ft | 151 kts | 355° |
| 2026-05-04 03:38 | 30.51813 | -95.65115 | 9969 ft | 151 kts | 355° |
| 2026-05-04 03:38 | 30.52863 | -95.65145 | 9973 ft | 151 kts | 355° |
| 2026-05-04 03:39 | 30.53910 | -95.65220 | 9978 ft | 151 kts | 348° |
| 2026-05-04 03:39 | 30.54915 | -95.65545 | 9981 ft | 150 kts | 335° |
| 2026-05-04 03:39 | 30.55846 | -95.66073 | 9980 ft | 149 kts | 327° |
| 2026-05-04 03:39 | 30.56726 | -95.66696 | 9979 ft | 147 kts | 325° |
| 2026-05-04 03:40 | 30.57621 | -95.67265 | 9987 ft | 147 kts | 332° |
| 2026-05-04 03:40 | 30.58541 | -95.67789 | 9986 ft | 147 kts | 330° |
| 2026-05-04 03:40 | 30.59450 | -95.68325 | 9982 ft | 147 kts | 330° |
| 2026-05-04 03:40 | 30.60364 | -95.68853 | 9987 ft | 146 kts | 331° |
| 2026-05-04 03:41 | 30.61284 | -95.69365 | 10001 ft | 147 kts | 332° |
| 2026-05-04 03:41 | 30.62212 | -95.69861 | 9991 ft | 147 kts | 333° |
| 2026-05-04 03:41 | 30.63129 | -95.70345 | 9996 ft | 147 kts | 332° |
| 2026-05-04 03:41 | 30.64059 | -95.70838 | 9996 ft | 147 kts | 332° |
| 2026-05-04 03:42 | 30.64990 | -95.71333 | 9994 ft | 147 kts | 332° |
| 2026-05-04 03:42 | 30.65920 | -95.71827 | 9996 ft | 147 kts | 332° |
| 2026-05-04 03:42 | 30.66851 | -95.72323 | 9994 ft | 147 kts | 332° |
| 2026-05-04 03:42 | 30.67781 | -95.72815 | 10002 ft | 147 kts | 332° |
| 2026-05-04 03:43 | 30.68711 | -95.73307 | 10003 ft | 147 kts | 332° |
| 2026-05-04 03:43 | 30.69640 | -95.73802 | 9997 ft | 147 kts | 332° |
| 2026-05-04 03:43 | 30.70568 | -95.74298 | 10001 ft | 147 kts | 332° |
| 2026-05-04 03:43 | 30.71486 | -95.74789 | 10001 ft | 147 kts | 332° |
| 2026-05-04 03:44 | 30.72415 | -95.75286 | 10004 ft | 147 kts | 332° |
| 2026-05-04 03:44 | 30.73343 | -95.75783 | 10000 ft | 147 kts | 332° |
| 2026-05-04 03:44 | 30.74273 | -95.76280 | 9998 ft | 147 kts | 332° |
| 2026-05-04 03:44 | 30.75201 | -95.76776 | 10007 ft | 146 kts | 332° |
| 2026-05-04 03:45 | 30.76126 | -95.77272 | 10000 ft | 146 kts | 332° |
| 2026-05-04 03:45 | 30.77050 | -95.77768 | 9999 ft | 146 kts | 332° |
| 2026-05-04 03:45 | 30.77972 | -95.78263 | 10000 ft | 146 kts | 332° |
| 2026-05-04 03:45 | 30.78897 | -95.78760 | 9996 ft | 146 kts | 332° |
| 2026-05-04 03:46 | 30.79809 | -95.79249 | 9998 ft | 146 kts | 332° |
| 2026-05-04 03:46 | 30.80733 | -95.79744 | 9995 ft | 146 kts | 332° |
| 2026-05-04 03:46 | 30.81658 | -95.80239 | 10000 ft | 146 kts | 332° |
| 2026-05-04 03:46 | 30.82580 | -95.80732 | 9998 ft | 146 kts | 332° |
| 2026-05-04 03:47 | 30.83503 | -95.81226 | 9996 ft | 146 kts | 332° |
| 2026-05-04 03:47 | 30.84413 | -95.81715 | 9994 ft | 146 kts | 332° |
| 2026-05-04 03:47 | 30.85331 | -95.82211 | 9992 ft | 146 kts | 332° |
| 2026-05-04 03:47 | 30.86250 | -95.82709 | 9994 ft | 146 kts | 332° |
| 2026-05-04 03:48 | 30.87169 | -95.83204 | 9993 ft | 145 kts | 332° |
| 2026-05-04 03:48 | 30.88088 | -95.83697 | 9989 ft | 145 kts | 332° |
| 2026-05-04 03:48 | 30.89004 | -95.84189 | 9988 ft | 144 kts | 332° |
| 2026-05-04 03:48 | 30.89914 | -95.84676 | 9988 ft | 145 kts | 332° |
| 2026-05-04 03:49 | 30.90836 | -95.85171 | 9990 ft | 147 kts | 332° |
| 2026-05-04 03:49 | 30.91768 | -95.85673 | 9985 ft | 148 kts | 332° |
| 2026-05-04 03:49 | 30.92709 | -95.86178 | 9986 ft | 149 kts | 332° |
| 2026-05-04 03:49 | 30.93655 | -95.86685 | 9980 ft | 150 kts | 332° |
| 2026-05-04 03:50 | 30.94605 | -95.87196 | 9977 ft | 150 kts | 332° |
| 2026-05-04 03:50 | 30.95554 | -95.87709 | 9979 ft | 151 kts | 332° |
| 2026-05-04 03:50 | 30.96505 | -95.88222 | 9978 ft | 150 kts | 332° |
| 2026-05-04 03:50 | 30.97456 | -95.88734 | 9978 ft | 150 kts | 332° |
| 2026-05-04 03:51 | 30.98407 | -95.89245 | 9973 ft | 151 kts | 332° |
| 2026-05-04 03:51 | 30.99357 | -95.89757 | 9975 ft | 151 kts | 332° |
| 2026-05-04 03:51 | 31.00310 | -95.90269 | 9974 ft | 151 kts | 332° |
| 2026-05-04 03:51 | 31.01264 | -95.90782 | 9972 ft | 151 kts | 332° |
| 2026-05-04 03:52 | 31.02217 | -95.91294 | 9977 ft | 151 kts | 332° |
| 2026-05-04 03:52 | 31.03169 | -95.91808 | 9973 ft | 151 kts | 331° |
| 2026-05-04 03:52 | 31.04107 | -95.92315 | 9973 ft | 150 kts | 331° |
| 2026-05-04 03:52 | 31.05059 | -95.92828 | 9976 ft | 150 kts | 331° |
| 2026-05-04 03:53 | 31.06009 | -95.93341 | 9971 ft | 150 kts | 331° |
| 2026-05-04 03:53 | 31.06958 | -95.93854 | 9973 ft | 151 kts | 331° |
| 2026-05-04 03:53 | 31.07909 | -95.94368 | 9971 ft | 150 kts | 331° |
| 2026-05-04 03:53 | 31.08858 | -95.94883 | 9972 ft | 150 kts | 331° |
| 2026-05-04 03:54 | 31.09802 | -95.95393 | 9968 ft | 149 kts | 331° |
| 2026-05-04 03:54 | 31.10747 | -95.95902 | 9969 ft | 150 kts | 331° |
| 2026-05-04 03:54 | 31.11693 | -95.96413 | 9971 ft | 150 kts | 331° |
| 2026-05-04 03:54 | 31.12653 | -95.96890 | 9975 ft | 150 kts | 338° |
| 2026-05-04 03:55 | 31.13674 | -95.97168 | 9968 ft | 151 kts | 348° |
| 2026-05-04 03:55 | 31.14719 | -95.97229 | 9971 ft | 153 kts | 358° |
| 2026-05-04 03:55 | 31.15781 | -95.97058 | 9969 ft | 155 kts | 8° |
| 2026-05-04 03:55 | 31.16834 | -95.96755 | 9972 ft | 156 kts | 11° |
| 2026-05-04 03:56 | 31.17890 | -95.96437 | 9969 ft | 157 kts | 11° |
| 2026-05-04 03:56 | 31.18953 | -95.96148 | 9973 ft | 157 kts | 9° |
| 2026-05-04 03:56 | 31.20024 | -95.95876 | 9972 ft | 157 kts | 7° |
| 2026-05-04 03:56 | 31.21103 | -95.95658 | 9970 ft | 157 kts | 5° |
| 2026-05-04 03:57 | 31.22187 | -95.95459 | 9972 ft | 157 kts | 5° |
| 2026-05-04 03:57 | 31.23272 | -95.95283 | 9968 ft | 157 kts | 4° |
| 2026-05-04 03:57 | 31.24347 | -95.95133 | 9970 ft | 157 kts | 2° |
| 2026-05-04 03:57 | 31.25435 | -95.94999 | 9970 ft | 157 kts | 2° |
| 2026-05-04 03:58 | 31.27610 | -95.94735 | 9970 ft | 157 kts | 2° |
| 2026-05-04 03:58 | 31.28695 | -95.94610 | 9972 ft | 157 kts | 2° |
| 2026-05-04 03:58 | 31.29784 | -95.94485 | 9971 ft | 157 kts | 2° |
| 2026-05-04 03:59 | 31.30871 | -95.94355 | 9972 ft | 157 kts | 2° |
| 2026-05-04 03:59 | 31.31960 | -95.94218 | 9968 ft | 157 kts | 2° |
| 2026-05-04 03:59 | 31.33051 | -95.94070 | 9969 ft | 158 kts | 3° |
| 2026-05-04 03:59 | 31.34141 | -95.93919 | 9972 ft | 158 kts | 3° |
| 2026-05-04 04:00 | 31.35232 | -95.93766 | 9968 ft | 158 kts | 3° |
| 2026-05-04 04:00 | 31.36311 | -95.93615 | 9967 ft | 158 kts | 3° |
| 2026-05-04 04:00 | 31.37404 | -95.93465 | 9969 ft | 158 kts | 3° |
| 2026-05-04 04:00 | 31.38497 | -95.93317 | 9970 ft | 158 kts | 3° |
| 2026-05-04 04:01 | 31.39595 | -95.93170 | 9970 ft | 158 kts | 3° |
| 2026-05-04 04:01 | 31.40687 | -95.93023 | 9973 ft | 158 kts | 2° |
| 2026-05-04 04:01 | 31.41780 | -95.92880 | 9971 ft | 158 kts | 2° |
| 2026-05-04 04:01 | 31.42873 | -95.92737 | 9973 ft | 158 kts | 3° |
| 2026-05-04 04:02 | 31.43967 | -95.92593 | 9967 ft | 158 kts | 3° |
| 2026-05-04 04:02 | 31.45062 | -95.92451 | 9970 ft | 158 kts | 3° |
| 2026-05-04 04:02 | 31.46157 | -95.92305 | 9969 ft | 158 kts | 3° |
| 2026-05-04 04:02 | 31.47253 | -95.92157 | 9968 ft | 159 kts | 3° |
| 2026-05-04 04:03 | 31.48337 | -95.92013 | 9971 ft | 158 kts | 3° |
| 2026-05-04 04:03 | 31.49434 | -95.91865 | 9972 ft | 159 kts | 3° |
| 2026-05-04 04:03 | 31.50513 | -95.91717 | 9950 ft | 155 kts | 3° |
| 2026-05-04 04:03 | 31.51587 | -95.91572 | 9786 ft | 157 kts | 3° |
| 2026-05-04 04:04 | 31.52681 | -95.91430 | 9581 ft | 158 kts | 3° |
| 2026-05-04 04:04 | 31.53780 | -95.91287 | 9385 ft | 159 kts | 3° |
| 2026-05-04 04:04 | 31.54512 | -95.91190 | 9265 ft | 159 kts | 3° |
| 2026-05-04 04:04 | 31.55970 | -95.90999 | 9034 ft | 159 kts | 4° |
| 2026-05-04 04:05 | 31.57062 | -95.90855 | 8778 ft | 159 kts | 4° |
| 2026-05-04 04:05 | 31.58171 | -95.90710 | 8482 ft | 160 kts | 4° |
| 2026-05-04 04:05 | 31.58901 | -95.90614 | 8346 ft | 158 kts | 4° |
| 2026-05-04 04:05 | 31.59996 | -95.90469 | 8089 ft | 159 kts | 4° |
| 2026-05-04 04:06 | 31.61100 | -95.90321 | 7832 ft | 159 kts | 5° |
| 2026-05-04 04:06 | 31.62193 | -95.90172 | 7603 ft | 158 kts | 5° |
| 2026-05-04 04:06 | 31.63288 | -95.90021 | 7352 ft | 159 kts | 5° |
| 2026-05-04 04:06 | 31.64380 | -95.89870 | 7167 ft | 155 kts | 5° |
| 2026-05-04 04:07 | 31.65437 | -95.89723 | 6958 ft | 152 kts | 5° |
| 2026-05-04 04:07 | 31.66474 | -95.89578 | 6765 ft | 148 kts | 5° |
| 2026-05-04 04:07 | 31.67493 | -95.89439 | 6561 ft | 147 kts | 5° |
| 2026-05-04 04:07 | 31.68499 | -95.89303 | 6372 ft | 144 kts | 5° |
| 2026-05-04 04:08 | 31.69493 | -95.89171 | 6193 ft | 143 kts | 5° |
| 2026-05-04 04:08 | 31.70488 | -95.89039 | 5996 ft | 145 kts | 5° |
| 2026-05-04 04:08 | 31.71488 | -95.88907 | 5835 ft | 144 kts | 5° |
| 2026-05-04 04:08 | 31.72466 | -95.88773 | 5666 ft | 144 kts | 6° |
| 2026-05-04 04:09 | 31.73461 | -95.88638 | 5495 ft | 143 kts | 6° |
| 2026-05-04 04:09 | 31.74445 | -95.88506 | 5355 ft | 141 kts | 6° |
| 2026-05-04 04:09 | 31.75413 | -95.88376 | 5223 ft | 139 kts | 6° |
| 2026-05-04 04:09 | 31.76374 | -95.88247 | 5105 ft | 137 kts | 6° |
| 2026-05-04 04:10 | 31.77316 | -95.88120 | 4972 ft | 137 kts | 6° |
| 2026-05-04 04:10 | 31.78270 | -95.87991 | 4831 ft | 137 kts | 6° |
| 2026-05-04 04:10 | 31.79212 | -95.87862 | 4703 ft | 137 kts | 6° |
| 2026-05-04 04:10 | 31.80163 | -95.87732 | 4566 ft | 137 kts | 6° |
| 2026-05-04 04:11 | 31.81106 | -95.87603 | 4445 ft | 136 kts | 5° |
| 2026-05-04 04:11 | 31.82045 | -95.87476 | 4327 ft | 136 kts | 5° |
| 2026-05-04 04:11 | 31.82983 | -95.87351 | 4210 ft | 135 kts | 5° |
| 2026-05-04 04:11 | 31.83920 | -95.87226 | 4094 ft | 136 kts | 5° |
| 2026-05-04 04:12 | 31.84854 | -95.87103 | 3983 ft | 135 kts | 5° |
| 2026-05-04 04:12 | 31.85783 | -95.86978 | 3880 ft | 134 kts | 5° |
| 2026-05-04 04:12 | 31.86711 | -95.86851 | 3768 ft | 134 kts | 5° |
| 2026-05-04 04:12 | 31.87632 | -95.86726 | 3684 ft | 133 kts | 5° |
| 2026-05-04 04:13 | 31.88540 | -95.86599 | 3573 ft | 133 kts | 5° |
| 2026-05-04 04:13 | 31.89456 | -95.86446 | 3493 ft | 132 kts | 9° |
| 2026-05-04 04:13 | 31.90334 | -95.86179 | 3448 ft | 129 kts | 17° |
| 2026-05-04 04:13 | 31.91179 | -95.85864 | 3389 ft | 126 kts | 12° |
| 2026-05-04 04:14 | 31.92037 | -95.85779 | 3351 ft | 123 kts | 355° |
| 2026-05-04 04:14 | 31.92884 | -95.85796 | 3316 ft | 120 kts | 356° |
| 2026-05-04 04:14 | 31.93719 | -95.85799 | 3248 ft | 120 kts | 357° |
| 2026-05-04 04:14 | 31.94567 | -95.85796 | 3195 ft | 124 kts | 358° |
| 2026-05-04 04:15 | 31.95445 | -95.85798 | 3151 ft | 128 kts | 357° |
| 2026-05-04 04:15 | 31.96336 | -95.85791 | 3134 ft | 127 kts | 360° |
| 2026-05-04 04:15 | 31.97221 | -95.85703 | 3099 ft | 129 kts | 0° |
| 2026-05-04 04:15 | 31.98123 | -95.85639 | 3067 ft | 130 kts | 2° |
| 2026-05-04 04:16 | 31.99034 | -95.85596 | 3043 ft | 135 kts | 356° |
| 2026-05-04 04:16 | 31.99983 | -95.85619 | 3050 ft | 137 kts | 356° |
| 2026-05-04 04:16 | 32.00946 | -95.85642 | 3056 ft | 139 kts | 356° |
| 2026-05-04 04:16 | 32.01917 | -95.85662 | 3057 ft | 140 kts | 357° |
| 2026-05-04 04:17 | 32.02885 | -95.85686 | 3060 ft | 138 kts | 354° |
| 2026-05-04 04:17 | 32.03831 | -95.85743 | 2961 ft | 132 kts | 355° |
| 2026-05-04 04:17 | 32.04731 | -95.85755 | 2852 ft | 128 kts | 357° |
| 2026-05-04 04:17 | 32.05617 | -95.85754 | 2738 ft | 128 kts | 358° |
| 2026-05-04 04:18 | 32.06510 | -95.85697 | 2605 ft | 129 kts | 3° |
| 2026-05-04 04:18 | 32.07405 | -95.85598 | 2467 ft | 130 kts | 4° |
| 2026-05-04 04:18 | 32.08316 | -95.85490 | 2312 ft | 132 kts | 3° |
| 2026-05-04 04:18 | 32.09216 | -95.85407 | 2229 ft | 128 kts | 2° |
| 2026-05-04 04:19 | 32.10082 | -95.85315 | 2136 ft | 127 kts | 3° |
| 2026-05-04 04:19 | 32.10994 | -95.85214 | 2056 ft | 134 kts | 4° |
| 2026-05-04 04:19 | 32.11921 | -95.85095 | 1952 ft | 133 kts | 4° |
| 2026-05-04 04:19 | 32.12831 | -95.84979 | 1900 ft | 129 kts | 4° |
| 2026-05-04 04:20 | 32.13712 | -95.84800 | 1828 ft | 127 kts | 11° |
| 2026-05-04 04:20 | 32.14525 | -95.84518 | 1804 ft | 120 kts | 20° |
| 2026-05-04 04:20 | 32.15228 | -95.84081 | 1856 ft | 115 kts | 34° |
| 2026-05-04 04:20 | 32.15860 | -95.83454 | 1863 ft | 122 kts | 46° |
| 2026-05-04 04:21 | 32.16367 | -95.82650 | 1940 ft | 121 kts | 65° |
| 2026-05-04 04:21 | 32.16642 | -95.81708 | 1946 ft | 121 kts | 84° |
| 2026-05-04 04:21 | 32.16715 | -95.80727 | 1860 ft | 126 kts | 93° |
| 2026-05-04 04:21 | 32.16690 | -95.79689 | 1822 ft | 126 kts | 104° |
| 2026-05-04 04:22 | 32.16372 | -95.78749 | 1779 ft | 120 kts | 129° |
| 2026-05-04 04:22 | 32.15809 | -95.78079 | 1678 ft | 114 kts | 152° |
| 2026-05-04 04:22 | 32.15100 | -95.77788 | 1616 ft | 104 kts | 180° |
| 2026-05-04 04:22 | 32.14411 | -95.77924 | 1588 ft | 98 kts | 205° |
| 2026-05-04 04:23 | 32.13908 | -95.78432 | 1561 ft | 96 kts | 237° |
| 2026-05-04 04:23 | 32.13841 | -95.79206 | 1473 ft | 104 kts | 283° |
| 2026-05-04 04:23 | 32.14221 | -95.79962 | 1352 ft | 107 kts | 302° |
| 2026-05-04 04:23 | 32.14674 | -95.80623 | 1343 ft | 103 kts | 305° |
| 2026-05-04 04:24 | 32.15191 | -95.81215 | 1310 ft | 105 kts | 323° |
| 2026-05-04 04:24 | 32.15884 | -95.81366 | 1311 ft | 103 kts | 5° |
| 2026-05-04 04:24 | 32.16580 | -95.81301 | 1288 ft | 96 kts | 0° |
| 2026-05-04 04:24 | 32.17198 | -95.81277 | 1232 ft | 82 kts | 1° |
| 2026-05-04 04:25 | 32.17758 | -95.81316 | 1201 ft | 82 kts | 339° |
| 2026-05-04 04:25 | 32.18203 | -95.81731 | 1130 ft | 84 kts | 295° |
| 2026-05-04 04:25 | 32.18270 | -95.82392 | 1041 ft | 82 kts | 248° |
| 2026-05-04 04:25 | 32.17878 | -95.82830 | 891 ft | 80 kts | 191° |
| 2026-05-04 04:26 | 32.17321 | -95.82834 | 665 ft | 79 kts | 181° |
| 2026-05-04 04:26 | 32.16789 | -95.82838 | 460 ft | 71 kts | 179° |
| 2026-05-04 04:26 | 32.16399 | -95.82836 | 440 ft | 43 kts | 180° |
| 2026-05-04 04:26 | 32.16178 | -95.82835 | 447 ft | 9 kts | 179° |
| 2026-05-04 04:27 | 32.16107 | -95.82835 | 448 ft | 3 kts | 196° |
| 2026-05-04 04:27 | 32.16090 | -95.82867 | 448 ft | 7 kts | 274° |
| 2026-05-04 04:27 | 32.16106 | -95.82912 | 448 ft | 6 kts | 359° |
| 2026-05-04 04:27 | 32.16153 | -95.82912 | 448 ft | 7 kts | 358° |
| 2026-05-04 04:28 | 32.16212 | -95.82912 | 448 ft | 10 kts | 0° |
| 2026-05-04 04:28 | 32.16287 | -95.82913 | 446 ft | 12 kts | 358° |
| 2026-05-04 04:28 | 32.16374 | -95.82913 | 444 ft | 11 kts | 1° |
| 2026-05-04 04:28 | 32.16436 | -95.82913 | 444 ft | 6 kts | 360° |
| 2026-05-04 04:29 | 32.16474 | -95.82916 | 444 ft | 6 kts | 331° |
| 2026-05-04 04:29 | 32.16483 | -95.82951 | 445 ft | 3 kts | 310° |
| 2026-05-04 04:29 | 32.16504 | -95.82956 | 445 ft | 3 kts | 359° |
| 2026-05-04 04:29 | 32.16525 | -95.82956 | 446 ft | 3 kts | 359° |
| 2026-05-04 04:30 | 32.16536 | -95.82966 | 446 ft | 4 kts | 261° |
| 2026-05-04 04:30 | 32.16528 | -95.82983 | 446 ft | 0 kts | 270° |
| 2026-05-04 04:30 | 32.16528 | -95.82991 | 447 ft | 0 kts | 270° |